sensor_id;sensor_type;location;lat;lon;timestamp;P1;durP1;ratioP1;P2;durP2;ratioP2
22937;SDS011;11634;42.734;23.298;2023-04-03T00:01:26;4.50;;;3.60;;
22937;SDS011;11634;42.734;23.298;2023-04-03T00:03:52;4.40;;;3.70;;
22937;SDS011;11634;42.734;23.298;2023-04-03T00:06:17;5.47;;;3.70;;
22937;SDS011;11634;42.734;23.298;2023-04-03T00:08:43;4.60;;;3.83;;
22937;SDS011;11634;42.734;23.298;2023-04-03T00:11:11;4.20;;;3.10;;
22937;SDS011;11634;42.734;23.298;2023-04-03T00:13:39;5.63;;;3.97;;
22937;SDS011;11634;42.734;23.298;2023-04-03T00:16:05;4.95;;;3.55;;
22937;SDS011;11634;42.734;23.298;2023-04-03T00:18:32;9.27;;;4.18;;
22937;SDS011;11634;42.734;23.298;2023-04-03T00:20:57;5.53;;;3.42;;
22937;SDS011;11634;42.734;23.298;2023-04-03T00:23:23;6.13;;;4.32;;
22937;SDS011;11634;42.734;23.298;2023-04-03T00:25:49;6.03;;;3.80;;
22937;SDS011;11634;42.734;23.298;2023-04-03T00:28:15;5.30;;;3.40;;
22937;SDS011;11634;42.734;23.298;2023-04-03T00:30:40;7.50;;;3.90;;
22937;SDS011;11634;42.734;23.298;2023-04-03T00:33:06;7.75;;;4.13;;
22937;SDS011;11634;42.734;23.298;2023-04-03T00:35:31;7.45;;;4.10;;
22937;SDS011;11634;42.734;23.298;2023-04-03T00:37:57;5.95;;;3.83;;
22937;SDS011;11634;42.734;23.298;2023-04-03T00:40:24;5.70;;;3.83;;
22937;SDS011;11634;42.734;23.298;2023-04-03T00:42:51;8.55;;;3.90;;
22937;SDS011;11634;42.734;23.298;2023-04-03T00:45:27;5.35;;;3.35;;
22937;SDS011;11634;42.734;23.298;2023-04-03T00:47:54;6.07;;;3.55;;
22937;SDS011;11634;42.734;23.298;2023-04-03T00:50:20;5.57;;;3.47;;
22937;SDS011;11634;42.734;23.298;2023-04-03T00:52:46;6.32;;;3.60;;
22937;SDS011;11634;42.734;23.298;2023-04-03T00:55:14;5.07;;;3.58;;
22937;SDS011;11634;42.734;23.298;2023-04-03T00:57:40;7.63;;;3.45;;
22937;SDS011;11634;42.734;23.298;2023-04-03T01:00:07;6.70;;;4.10;;
22937;SDS011;11634;42.734;23.298;2023-04-03T01:02:38;5.70;;;3.55;;
22937;SDS011;11634;42.734;23.298;2023-04-03T01:05:07;6.28;;;3.90;;
22937;SDS011;11634;42.734;23.298;2023-04-03T01:07:33;4.55;;;3.28;;
22937;SDS011;11634;42.734;23.298;2023-04-03T01:10:02;7.35;;;3.63;;
22937;SDS011;11634;42.734;23.298;2023-04-03T01:12:29;6.25;;;3.42;;
22937;SDS011;11634;42.734;23.298;2023-04-03T01:14:55;4.18;;;2.78;;
22937;SDS011;11634;42.734;23.298;2023-04-03T01:17:26;3.60;;;3.00;;
22937;SDS011;11634;42.734;23.298;2023-04-03T01:19:57;3.95;;;2.90;;
22937;SDS011;11634;42.734;23.298;2023-04-03T01:22:33;2.90;;;2.53;;
22937;SDS011;11634;42.734;23.298;2023-04-03T01:25:00;2.90;;;2.28;;
22937;SDS011;11634;42.734;23.298;2023-04-03T01:27:26;4.35;;;2.60;;
22937;SDS011;11634;42.734;23.298;2023-04-03T01:29:52;3.45;;;2.38;;
22937;SDS011;11634;42.734;23.298;2023-04-03T01:32:21;5.28;;;3.33;;
22937;SDS011;11634;42.734;23.298;2023-04-03T01:34:46;2.92;;;2.05;;
22937;SDS011;11634;42.734;23.298;2023-04-03T01:37:12;5.60;;;2.47;;
22937;SDS011;11634;42.734;23.298;2023-04-03T01:39:38;4.47;;;3.00;;
22937;SDS011;11634;42.734;23.298;2023-04-03T01:42:04;4.95;;;3.15;;
22937;SDS011;11634;42.734;23.298;2023-04-03T01:44:34;5.45;;;3.67;;
22937;SDS011;11634;42.734;23.298;2023-04-03T01:46:59;3.42;;;2.17;;
22937;SDS011;11634;42.734;23.298;2023-04-03T01:49:27;4.85;;;2.95;;
22937;SDS011;11634;42.734;23.298;2023-04-03T01:51:54;3.28;;;2.42;;
22937;SDS011;11634;42.734;23.298;2023-04-03T01:54:20;4.90;;;3.20;;
22937;SDS011;11634;42.734;23.298;2023-04-03T01:56:45;5.80;;;3.17;;
22937;SDS011;11634;42.734;23.298;2023-04-03T01:59:16;3.63;;;2.92;;
22937;SDS011;11634;42.734;23.298;2023-04-03T02:01:44;5.13;;;3.17;;
22937;SDS011;11634;42.734;23.298;2023-04-03T02:04:10;4.60;;;2.60;;
22937;SDS011;11634;42.734;23.298;2023-04-03T02:06:38;3.95;;;2.70;;
22937;SDS011;11634;42.734;23.298;2023-04-03T02:09:04;2.45;;;2.20;;
22937;SDS011;11634;42.734;23.298;2023-04-03T02:11:29;3.03;;;2.55;;
22937;SDS011;11634;42.734;23.298;2023-04-03T02:13:56;3.25;;;2.38;;
22937;SDS011;11634;42.734;23.298;2023-04-03T02:16:22;7.93;;;2.45;;
22937;SDS011;11634;42.734;23.298;2023-04-03T02:18:48;3.08;;;2.30;;
22937;SDS011;11634;42.734;23.298;2023-04-03T02:21:15;3.15;;;2.70;;
22937;SDS011;11634;42.734;23.298;2023-04-03T02:23:40;3.30;;;2.67;;
22937;SDS011;11634;42.734;23.298;2023-04-03T02:26:10;4.75;;;2.47;;
22937;SDS011;11634;42.734;23.298;2023-04-03T02:28:36;6.85;;;3.03;;
22937;SDS011;11634;42.734;23.298;2023-04-03T02:31:02;2.92;;;2.58;;
22937;SDS011;11634;42.734;23.298;2023-04-03T02:33:29;4.60;;;2.70;;
22937;SDS011;11634;42.734;23.298;2023-04-03T02:35:55;8.30;;;5.03;;
22937;SDS011;11634;42.734;23.298;2023-04-03T02:38:21;4.07;;;3.60;;
22937;SDS011;11634;42.734;23.298;2023-04-03T02:40:48;9.32;;;5.63;;
22937;SDS011;11634;42.734;23.298;2023-04-03T02:43:13;7.03;;;4.72;;
22937;SDS011;11634;42.734;23.298;2023-04-03T02:45:39;8.52;;;5.13;;
22937;SDS011;11634;42.734;23.298;2023-04-03T02:48:05;9.40;;;5.25;;
22937;SDS011;11634;42.734;23.298;2023-04-03T02:50:31;7.32;;;4.22;;
22937;SDS011;11634;42.734;23.298;2023-04-03T02:52:57;5.43;;;3.53;;
22937;SDS011;11634;42.734;23.298;2023-04-03T02:55:22;6.97;;;3.83;;
22937;SDS011;11634;42.734;23.298;2023-04-03T02:57:50;9.50;;;4.50;;
22937;SDS011;11634;42.734;23.298;2023-04-03T03:00:16;8.00;;;4.10;;
22937;SDS011;11634;42.734;23.298;2023-04-03T03:02:42;8.13;;;4.53;;
22937;SDS011;11634;42.734;23.298;2023-04-03T03:05:08;7.22;;;4.60;;
22937;SDS011;11634;42.734;23.298;2023-04-03T03:07:36;16.83;;;8.30;;
22937;SDS011;11634;42.734;23.298;2023-04-03T03:10:02;25.05;;;13.95;;
22937;SDS011;11634;42.734;23.298;2023-04-03T03:12:27;9.65;;;5.43;;
22937;SDS011;11634;42.734;23.298;2023-04-03T03:14:54;9.35;;;4.72;;
22937;SDS011;11634;42.734;23.298;2023-04-03T03:17:20;13.13;;;6.00;;
22937;SDS011;11634;42.734;23.298;2023-04-03T03:19:46;9.32;;;5.63;;
22937;SDS011;11634;42.734;23.298;2023-04-03T03:22:11;9.23;;;5.73;;
22937;SDS011;11634;42.734;23.298;2023-04-03T03:24:36;9.52;;;5.65;;
22937;SDS011;11634;42.734;23.298;2023-04-03T03:27:02;11.07;;;6.18;;
22937;SDS011;11634;42.734;23.298;2023-04-03T03:29:27;11.52;;;6.30;;
22937;SDS011;11634;42.734;23.298;2023-04-03T03:31:53;9.30;;;6.28;;
22937;SDS011;11634;42.734;23.298;2023-04-03T03:34:19;11.70;;;7.22;;
22937;SDS011;11634;42.734;23.298;2023-04-03T03:36:44;8.80;;;6.70;;
22937;SDS011;11634;42.734;23.298;2023-04-03T03:39:10;9.38;;;7.25;;
22937;SDS011;11634;42.734;23.298;2023-04-03T03:41:36;10.05;;;7.47;;
22937;SDS011;11634;42.734;23.298;2023-04-03T03:44:02;14.73;;;6.80;;
22937;SDS011;11634;42.734;23.298;2023-04-03T03:46:30;13.15;;;7.70;;
22937;SDS011;11634;42.734;23.298;2023-04-03T03:48:56;10.25;;;7.32;;
22937;SDS011;11634;42.734;23.298;2023-04-03T03:51:22;10.13;;;7.60;;
22937;SDS011;11634;42.734;23.298;2023-04-03T03:53:47;16.42;;;10.10;;
22937;SDS011;11634;42.734;23.298;2023-04-03T03:56:18;20.57;;;9.23;;
22937;SDS011;11634;42.734;23.298;2023-04-03T03:58:44;19.43;;;9.80;;
22937;SDS011;11634;42.734;23.298;2023-04-03T04:01:11;17.90;;;9.57;;
22937;SDS011;11634;42.734;23.298;2023-04-03T04:03:42;20.67;;;9.85;;
22937;SDS011;11634;42.734;23.298;2023-04-03T04:06:14;11.10;;;8.90;;
22937;SDS011;11634;42.734;23.298;2023-04-03T04:08:39;13.88;;;9.07;;
22937;SDS011;11634;42.734;23.298;2023-04-03T04:11:07;18.23;;;9.65;;
22937;SDS011;11634;42.734;23.298;2023-04-03T04:13:33;12.55;;;9.57;;
22937;SDS011;11634;42.734;23.298;2023-04-03T04:15:59;15.37;;;10.10;;
22937;SDS011;11634;42.734;23.298;2023-04-03T04:18:25;13.90;;;10.30;;
22937;SDS011;11634;42.734;23.298;2023-04-03T04:20:51;15.77;;;10.20;;
22937;SDS011;11634;42.734;23.298;2023-04-03T04:23:17;14.10;;;9.73;;
22937;SDS011;11634;42.734;23.298;2023-04-03T04:25:44;14.18;;;9.65;;
22937;SDS011;11634;42.734;23.298;2023-04-03T04:28:10;16.77;;;9.50;;
22937;SDS011;11634;42.734;23.298;2023-04-03T04:30:35;13.02;;;9.10;;
22937;SDS011;11634;42.734;23.298;2023-04-03T04:33:02;15.73;;;9.93;;
22937;SDS011;11634;42.734;23.298;2023-04-03T04:35:28;13.90;;;10.65;;
22937;SDS011;11634;42.734;23.298;2023-04-03T04:37:54;19.27;;;11.00;;
22937;SDS011;11634;42.734;23.298;2023-04-03T04:40:23;19.08;;;10.40;;
22937;SDS011;11634;42.734;23.298;2023-04-03T04:42:49;22.85;;;12.35;;
22937;SDS011;11634;42.734;23.298;2023-04-03T04:45:15;16.98;;;10.10;;
22937;SDS011;11634;42.734;23.298;2023-04-03T04:47:43;15.40;;;10.05;;
22937;SDS011;11634;42.734;23.298;2023-04-03T04:50:09;15.70;;;10.90;;
22937;SDS011;11634;42.734;23.298;2023-04-03T04:52:36;13.90;;;10.07;;
22937;SDS011;11634;42.734;23.298;2023-04-03T04:55:02;15.77;;;10.50;;
22937;SDS011;11634;42.734;23.298;2023-04-03T04:57:28;16.95;;;10.70;;
22937;SDS011;11634;42.734;23.298;2023-04-03T04:59:56;23.50;;;10.02;;
22937;SDS011;11634;42.734;23.298;2023-04-03T05:02:22;21.63;;;10.55;;
22937;SDS011;11634;42.734;23.298;2023-04-03T05:04:47;17.00;;;10.20;;
22937;SDS011;11634;42.734;23.298;2023-04-03T05:07:20;12.90;;;9.30;;
22937;SDS011;11634;42.734;23.298;2023-04-03T05:09:45;21.42;;;12.30;;
22937;SDS011;11634;42.734;23.298;2023-04-03T05:12:13;15.07;;;8.95;;
22937;SDS011;11634;42.734;23.298;2023-04-03T05:14:45;43.58;;;25.35;;
22937;SDS011;11634;42.734;23.298;2023-04-03T05:17:10;31.77;;;20.48;;
22937;SDS011;11634;42.734;23.298;2023-04-03T05:19:39;31.33;;;20.42;;
22937;SDS011;11634;42.734;23.298;2023-04-03T05:22:07;26.00;;;14.95;;
22937;SDS011;11634;42.734;23.298;2023-04-03T05:24:33;27.80;;;14.80;;
22937;SDS011;11634;42.734;23.298;2023-04-03T05:27:01;18.60;;;12.60;;
22937;SDS011;11634;42.734;23.298;2023-04-03T05:29:29;20.85;;;12.35;;
22937;SDS011;11634;42.734;23.298;2023-04-03T05:31:57;22.33;;;16.67;;
22937;SDS011;11634;42.734;23.298;2023-04-03T05:34:23;26.30;;;16.00;;
22937;SDS011;11634;42.734;23.298;2023-04-03T05:36:57;25.95;;;15.75;;
22937;SDS011;11634;42.734;23.298;2023-04-03T05:39:36;32.53;;;19.02;;
22937;SDS011;11634;42.734;23.298;2023-04-03T05:42:07;38.63;;;21.05;;
22937;SDS011;11634;42.734;23.298;2023-04-03T05:44:33;60.08;;;27.33;;
22937;SDS011;11634;42.734;23.298;2023-04-03T05:46:59;37.70;;;20.67;;
22937;SDS011;11634;42.734;23.298;2023-04-03T05:49:24;30.25;;;18.75;;
22937;SDS011;11634;42.734;23.298;2023-04-03T05:51:52;27.17;;;13.18;;
22937;SDS011;11634;42.734;23.298;2023-04-03T05:54:27;23.40;;;12.23;;
22937;SDS011;11634;42.734;23.298;2023-04-03T05:57:15;21.52;;;13.27;;
22937;SDS011;11634;42.734;23.298;2023-04-03T05:59:42;17.95;;;9.13;;
22937;SDS011;11634;42.734;23.298;2023-04-03T06:02:09;17.40;;;9.52;;
22937;SDS011;11634;42.734;23.298;2023-04-03T06:04:35;23.35;;;14.40;;
22937;SDS011;11634;42.734;23.298;2023-04-03T06:07:03;13.95;;;9.10;;
22937;SDS011;11634;42.734;23.298;2023-04-03T06:09:28;14.10;;;7.68;;
22937;SDS011;11634;42.734;23.298;2023-04-03T06:11:54;14.15;;;8.70;;
22937;SDS011;11634;42.734;23.298;2023-04-03T06:14:21;16.70;;;10.15;;
22937;SDS011;11634;42.734;23.298;2023-04-03T06:16:47;16.90;;;9.05;;
22937;SDS011;11634;42.734;23.298;2023-04-03T06:19:13;21.75;;;10.55;;
22937;SDS011;11634;42.734;23.298;2023-04-03T06:21:43;14.05;;;8.02;;
22937;SDS011;11634;42.734;23.298;2023-04-03T06:24:10;11.75;;;7.65;;
22937;SDS011;11634;42.734;23.298;2023-04-03T06:26:37;15.10;;;7.18;;
22937;SDS011;11634;42.734;23.298;2023-04-03T06:29:03;12.43;;;7.30;;
22937;SDS011;11634;42.734;23.298;2023-04-03T06:31:29;8.75;;;6.18;;
22937;SDS011;11634;42.734;23.298;2023-04-03T06:33:54;14.60;;;6.88;;
22937;SDS011;11634;42.734;23.298;2023-04-03T06:36:20;12.63;;;6.72;;
22937;SDS011;11634;42.734;23.298;2023-04-03T06:38:49;8.68;;;5.65;;
22937;SDS011;11634;42.734;23.298;2023-04-03T06:41:15;19.00;;;6.63;;
22937;SDS011;11634;42.734;23.298;2023-04-03T06:43:41;10.95;;;6.53;;
22937;SDS011;11634;42.734;23.298;2023-04-03T06:46:12;13.60;;;7.47;;
22937;SDS011;11634;42.734;23.298;2023-04-03T06:48:40;19.25;;;7.63;;
22937;SDS011;11634;42.734;23.298;2023-04-03T06:51:23;13.05;;;5.78;;
22937;SDS011;11634;42.734;23.298;2023-04-03T06:53:50;11.38;;;6.85;;
22937;SDS011;11634;42.734;23.298;2023-04-03T06:56:16;16.33;;;7.78;;
22937;SDS011;11634;42.734;23.298;2023-04-03T06:58:42;15.73;;;8.05;;
22937;SDS011;11634;42.734;23.298;2023-04-03T07:01:08;10.85;;;7.45;;
22937;SDS011;11634;42.734;23.298;2023-04-03T07:03:35;13.57;;;7.35;;
22937;SDS011;11634;42.734;23.298;2023-04-03T07:06:04;13.25;;;8.05;;
22937;SDS011;11634;42.734;23.298;2023-04-03T07:08:30;10.25;;;6.95;;
22937;SDS011;11634;42.734;23.298;2023-04-03T07:10:59;13.60;;;8.45;;
22937;SDS011;11634;42.734;23.298;2023-04-03T07:13:24;13.52;;;7.00;;
22937;SDS011;11634;42.734;23.298;2023-04-03T07:15:57;11.63;;;8.63;;
22937;SDS011;11634;42.734;23.298;2023-04-03T07:18:22;10.88;;;8.25;;
22937;SDS011;11634;42.734;23.298;2023-04-03T07:20:48;15.52;;;9.23;;
22937;SDS011;11634;42.734;23.298;2023-04-03T07:23:13;16.73;;;9.85;;
22937;SDS011;11634;42.734;23.298;2023-04-03T07:25:43;14.57;;;9.38;;
22937;SDS011;11634;42.734;23.298;2023-04-03T07:28:11;13.05;;;9.50;;
22937;SDS011;11634;42.734;23.298;2023-04-03T07:33:09;14.50;;;11.25;;
22937;SDS011;11634;42.734;23.298;2023-04-03T07:35:34;18.73;;;13.02;;
22937;SDS011;11634;42.734;23.298;2023-04-03T07:38:00;17.27;;;13.88;;
22937;SDS011;11634;42.734;23.298;2023-04-03T07:40:25;17.52;;;13.20;;
22937;SDS011;11634;42.734;23.298;2023-04-03T07:42:51;18.58;;;11.73;;
22937;SDS011;11634;42.734;23.298;2023-04-03T07:45:17;14.32;;;10.10;;
22937;SDS011;11634;42.734;23.298;2023-04-03T07:47:43;10.82;;;8.25;;
22937;SDS011;11634;42.734;23.298;2023-04-03T07:50:08;11.05;;;7.47;;
22937;SDS011;11634;42.734;23.298;2023-04-03T07:52:34;10.10;;;6.93;;
22937;SDS011;11634;42.734;23.298;2023-04-03T07:54:59;10.40;;;6.47;;
22937;SDS011;11634;42.734;23.298;2023-04-03T07:57:25;9.23;;;6.72;;
22937;SDS011;11634;42.734;23.298;2023-04-03T07:59:50;12.65;;;6.32;;
22937;SDS011;11634;42.734;23.298;2023-04-03T08:02:16;9.32;;;6.60;;
22937;SDS011;11634;42.734;23.298;2023-04-03T08:04:41;18.52;;;7.63;;
22937;SDS011;11634;42.734;23.298;2023-04-03T08:07:10;7.50;;;6.28;;
22937;SDS011;11634;42.734;23.298;2023-04-03T08:09:35;15.10;;;7.10;;
22937;SDS011;11634;42.734;23.298;2023-04-03T08:12:01;11.48;;;6.53;;
22937;SDS011;11634;42.734;23.298;2023-04-03T08:14:26;8.38;;;6.13;;
22937;SDS011;11634;42.734;23.298;2023-04-03T08:16:52;9.10;;;6.85;;
22937;SDS011;11634;42.734;23.298;2023-04-03T08:19:18;8.15;;;5.95;;
22937;SDS011;11634;42.734;23.298;2023-04-03T08:21:44;10.00;;;6.90;;
22937;SDS011;11634;42.734;23.298;2023-04-03T08:24:10;10.80;;;5.97;;
22937;SDS011;11634;42.734;23.298;2023-04-03T08:26:35;11.68;;;6.47;;
22937;SDS011;11634;42.734;23.298;2023-04-03T08:29:01;9.98;;;6.80;;
22937;SDS011;11634;42.734;23.298;2023-04-03T08:31:28;21.90;;;9.48;;
22937;SDS011;11634;42.734;23.298;2023-04-03T08:34:03;14.15;;;9.63;;
22937;SDS011;11634;42.734;23.298;2023-04-03T08:36:38;19.30;;;8.80;;
22937;SDS011;11634;42.734;23.298;2023-04-03T08:39:04;13.98;;;8.55;;
22937;SDS011;11634;42.734;23.298;2023-04-03T08:41:41;10.23;;;7.63;;
22937;SDS011;11634;42.734;23.298;2023-04-03T08:49:33;15.32;;;9.88;;
22937;SDS011;11634;42.734;23.298;2023-04-03T08:52:02;15.32;;;9.73;;
22937;SDS011;11634;42.734;23.298;2023-04-03T08:56:54;13.95;;;10.38;;
22937;SDS011;11634;42.734;23.298;2023-04-03T08:59:24;15.57;;;11.18;;
22937;SDS011;11634;42.734;23.298;2023-04-03T09:01:51;16.27;;;11.25;;
22937;SDS011;11634;42.734;23.298;2023-04-03T09:04:17;20.02;;;11.55;;
22937;SDS011;11634;42.734;23.298;2023-04-03T09:06:45;17.38;;;11.50;;
22937;SDS011;11634;42.734;23.298;2023-04-03T09:19:57;17.60;;;11.13;;
22937;SDS011;11634;42.734;23.298;2023-04-03T09:22:23;15.73;;;10.10;;
22937;SDS011;11634;42.734;23.298;2023-04-03T09:24:52;16.98;;;9.75;;
22937;SDS011;11634;42.734;23.298;2023-04-03T09:27:21;13.82;;;9.63;;
22937;SDS011;11634;42.734;23.298;2023-04-03T09:29:46;20.00;;;9.23;;
22937;SDS011;11634;42.734;23.298;2023-04-03T09:35:49;17.85;;;11.55;;
22937;SDS011;11634;42.734;23.298;2023-04-03T09:40:42;16.35;;;11.13;;
22937;SDS011;11634;42.734;23.298;2023-04-03T09:45:43;15.20;;;8.40;;
22937;SDS011;11634;42.734;23.298;2023-04-03T09:51:00;15.63;;;10.15;;
22937;SDS011;11634;42.734;23.298;2023-04-03T09:53:26;16.73;;;11.57;;
22937;SDS011;11634;42.734;23.298;2023-04-03T09:58:42;15.98;;;8.88;;
22937;SDS011;11634;42.734;23.298;2023-04-03T10:01:20;15.70;;;9.70;;
22937;SDS011;11634;42.734;23.298;2023-04-03T10:03:46;14.95;;;9.10;;
22937;SDS011;11634;42.734;23.298;2023-04-03T10:06:29;15.25;;;10.10;;
22937;SDS011;11634;42.734;23.298;2023-04-03T10:08:59;15.00;;;10.93;;
22937;SDS011;11634;42.734;23.298;2023-04-03T10:11:26;14.50;;;12.00;;
22937;SDS011;11634;42.734;23.298;2023-04-03T10:13:55;15.05;;;9.95;;
22937;SDS011;11634;42.734;23.298;2023-04-03T10:24:03;13.60;;;7.78;;
22937;SDS011;11634;42.734;23.298;2023-04-03T10:31:50;19.67;;;8.40;;
22937;SDS011;11634;42.734;23.298;2023-04-03T10:34:35;10.27;;;7.85;;
22937;SDS011;11634;42.734;23.298;2023-04-03T10:39:45;14.23;;;7.53;;
22937;SDS011;11634;42.734;23.298;2023-04-03T10:47:22;10.07;;;6.28;;
22937;SDS011;11634;42.734;23.298;2023-04-03T10:57:28;6.20;;;5.00;;
22937;SDS011;11634;42.734;23.298;2023-04-03T11:00:02;8.27;;;5.22;;
22937;SDS011;11634;42.734;23.298;2023-04-03T11:02:36;7.07;;;5.05;;
22937;SDS011;11634;42.734;23.298;2023-04-03T11:05:04;7.15;;;5.25;;
22937;SDS011;11634;42.734;23.298;2023-04-03T11:07:37;7.78;;;5.47;;
22937;SDS011;11634;42.734;23.298;2023-04-03T11:10:08;10.13;;;5.75;;
22937;SDS011;11634;42.734;23.298;2023-04-03T11:12:41;13.57;;;6.40;;
22937;SDS011;11634;42.734;23.298;2023-04-03T11:15:11;11.32;;;6.63;;
22937;SDS011;11634;42.734;23.298;2023-04-03T11:17:58;14.57;;;6.00;;
22937;SDS011;11634;42.734;23.298;2023-04-03T11:20:30;9.13;;;5.68;;
22937;SDS011;11634;42.734;23.298;2023-04-03T11:23:00;12.95;;;6.55;;
22937;SDS011;11634;42.734;23.298;2023-04-03T11:25:27;9.85;;;5.07;;
22937;SDS011;11634;42.734;23.298;2023-04-03T11:32:54;8.57;;;5.57;;
22937;SDS011;11634;42.734;23.298;2023-04-03T11:35:22;6.50;;;4.97;;
22937;SDS011;11634;42.734;23.298;2023-04-03T11:37:49;8.20;;;5.03;;
22937;SDS011;11634;42.734;23.298;2023-04-03T11:42:46;6.22;;;4.80;;
22937;SDS011;11634;42.734;23.298;2023-04-03T11:48:41;6.18;;;4.65;;
22937;SDS011;11634;42.734;23.298;2023-04-03T11:50:54;6.05;;;5.03;;
22937;SDS011;11634;42.734;23.298;2023-04-03T11:53:33;5.55;;;4.28;;
22937;SDS011;11634;42.734;23.298;2023-04-03T11:56:00;8.63;;;4.95;;
22937;SDS011;11634;42.734;23.298;2023-04-03T11:58:27;7.47;;;4.57;;
22937;SDS011;11634;42.734;23.298;2023-04-03T12:05:53;7.55;;;5.10;;
22937;SDS011;11634;42.734;23.298;2023-04-03T12:08:26;5.70;;;5.03;;
22937;SDS011;11634;42.734;23.298;2023-04-03T12:26:47;6.25;;;5.38;;
22937;SDS011;11634;42.734;23.298;2023-04-03T12:29:24;8.55;;;5.55;;
22937;SDS011;11634;42.734;23.298;2023-04-03T12:37:23;7.80;;;6.00;;
22937;SDS011;11634;42.734;23.298;2023-04-03T12:40:06;6.00;;;5.28;;
22937;SDS011;11634;42.734;23.298;2023-04-03T12:42:55;4.80;;;4.30;;
22937;SDS011;11634;42.734;23.298;2023-04-03T12:45:26;6.28;;;5.15;;
22937;SDS011;11634;42.734;23.298;2023-04-03T12:47:53;6.95;;;5.15;;
22937;SDS011;11634;42.734;23.298;2023-04-03T12:52:48;6.68;;;4.85;;
22937;SDS011;11634;42.734;23.298;2023-04-03T12:55:19;7.18;;;5.75;;
22937;SDS011;11634;42.734;23.298;2023-04-03T12:57:45;5.22;;;4.15;;
22937;SDS011;11634;42.734;23.298;2023-04-03T13:02:52;4.53;;;4.00;;
22937;SDS011;11634;42.734;23.298;2023-04-03T13:05:18;5.47;;;4.72;;
22937;SDS011;11634;42.734;23.298;2023-04-03T13:08:09;8.90;;;5.60;;
22937;SDS011;11634;42.734;23.298;2023-04-03T13:10:43;6.50;;;5.90;;
22937;SDS011;11634;42.734;23.298;2023-04-03T13:13:13;7.20;;;5.72;;
22937;SDS011;11634;42.734;23.298;2023-04-03T13:15:42;6.82;;;6.15;;
22937;SDS011;11634;42.734;23.298;2023-04-03T13:18:26;10.68;;;8.02;;
22937;SDS011;11634;42.734;23.298;2023-04-03T13:20:53;7.40;;;6.68;;
22937;SDS011;11634;42.734;23.298;2023-04-03T13:23:26;9.65;;;6.68;;
22937;SDS011;11634;42.734;23.298;2023-04-03T13:25:51;10.98;;;9.75;;
22937;SDS011;11634;42.734;23.298;2023-04-03T13:28:23;12.65;;;10.95;;
22937;SDS011;11634;42.734;23.298;2023-04-03T13:31:13;8.13;;;5.60;;
22937;SDS011;11634;42.734;23.298;2023-04-03T13:36:18;9.48;;;7.22;;
22937;SDS011;11634;42.734;23.298;2023-04-03T13:38:43;10.73;;;8.35;;
22937;SDS011;11634;42.734;23.298;2023-04-03T13:41:23;10.13;;;8.52;;
22937;SDS011;11634;42.734;23.298;2023-04-03T13:43:49;11.60;;;10.20;;
22937;SDS011;11634;42.734;23.298;2023-04-03T13:48:45;10.02;;;8.48;;
22937;SDS011;11634;42.734;23.298;2023-04-03T13:53:46;7.63;;;6.00;;
22937;SDS011;11634;42.734;23.298;2023-04-03T13:56:18;7.35;;;6.25;;
22937;SDS011;11634;42.734;23.298;2023-04-03T14:04:15;9.57;;;8.00;;
22937;SDS011;11634;42.734;23.298;2023-04-03T14:06:41;8.23;;;5.97;;
22937;SDS011;11634;42.734;23.298;2023-04-03T14:09:06;9.27;;;7.47;;
22937;SDS011;11634;42.734;23.298;2023-04-03T14:11:34;8.48;;;7.05;;
22937;SDS011;11634;42.734;23.298;2023-04-03T14:14:01;9.30;;;7.60;;
22937;SDS011;11634;42.734;23.298;2023-04-03T14:16:30;7.05;;;6.22;;
22937;SDS011;11634;42.734;23.298;2023-04-03T14:18:56;10.57;;;7.80;;
22937;SDS011;11634;42.734;23.298;2023-04-03T14:21:21;7.00;;;6.30;;
22937;SDS011;11634;42.734;23.298;2023-04-03T14:23:47;7.65;;;6.53;;
22937;SDS011;11634;42.734;23.298;2023-04-03T14:26:14;8.40;;;7.22;;
22937;SDS011;11634;42.734;23.298;2023-04-03T14:28:42;7.07;;;6.30;;
22937;SDS011;11634;42.734;23.298;2023-04-03T14:31:08;7.68;;;6.18;;
22937;SDS011;11634;42.734;23.298;2023-04-03T14:33:36;5.88;;;5.28;;
22937;SDS011;11634;42.734;23.298;2023-04-03T14:36:04;8.18;;;6.38;;
22937;SDS011;11634;42.734;23.298;2023-04-03T14:38:32;9.95;;;8.95;;
22937;SDS011;11634;42.734;23.298;2023-04-03T14:40:57;18.20;;;16.50;;
22937;SDS011;11634;42.734;23.298;2023-04-03T14:43:23;17.20;;;15.50;;
22937;SDS011;11634;42.734;23.298;2023-04-03T14:45:49;20.10;;;18.10;;
22937;SDS011;11634;42.734;23.298;2023-04-03T14:48:19;22.20;;;19.88;;
22937;SDS011;11634;42.734;23.298;2023-04-03T14:50:57;18.50;;;16.67;;
22937;SDS011;11634;42.734;23.298;2023-04-03T14:53:23;12.85;;;11.55;;
22937;SDS011;11634;42.734;23.298;2023-04-03T14:55:49;10.63;;;9.55;;
22937;SDS011;11634;42.734;23.298;2023-04-03T14:58:17;9.32;;;8.45;;
22937;SDS011;11634;42.734;23.298;2023-04-03T15:00:45;8.55;;;7.25;;
22937;SDS011;11634;42.734;23.298;2023-04-03T15:03:19;8.15;;;6.05;;
22937;SDS011;11634;42.734;23.298;2023-04-03T15:05:46;8.38;;;6.35;;
22937;SDS011;11634;42.734;23.298;2023-04-03T15:10:43;7.53;;;6.78;;
22937;SDS011;11634;42.734;23.298;2023-04-03T15:13:09;6.07;;;5.53;;
22937;SDS011;11634;42.734;23.298;2023-04-03T15:15:38;7.97;;;6.68;;
22937;SDS011;11634;42.734;23.298;2023-04-03T15:18:09;7.57;;;6.88;;
22937;SDS011;11634;42.734;23.298;2023-04-03T15:20:36;8.93;;;6.65;;
22937;SDS011;11634;42.734;23.298;2023-04-03T15:23:01;9.07;;;6.93;;
22937;SDS011;11634;42.734;23.298;2023-04-03T15:25:27;7.20;;;6.32;;
22937;SDS011;11634;42.734;23.298;2023-04-03T15:27:53;8.65;;;7.25;;
22937;SDS011;11634;42.734;23.298;2023-04-03T15:30:19;11.52;;;8.40;;
22937;SDS011;11634;42.734;23.298;2023-04-03T15:32:45;12.05;;;8.95;;
22937;SDS011;11634;42.734;23.298;2023-04-03T15:35:10;11.93;;;8.85;;
22937;SDS011;11634;42.734;23.298;2023-04-03T15:37:36;13.38;;;10.30;;
22937;SDS011;11634;42.734;23.298;2023-04-03T15:40:02;10.43;;;8.35;;
22937;SDS011;11634;42.734;23.298;2023-04-03T15:42:30;14.77;;;11.85;;
22937;SDS011;11634;42.734;23.298;2023-04-03T15:44:56;13.32;;;10.88;;
22937;SDS011;11634;42.734;23.298;2023-04-03T15:47:21;12.23;;;9.50;;
22937;SDS011;11634;42.734;23.298;2023-04-03T15:49:47;12.55;;;11.23;;
22937;SDS011;11634;42.734;23.298;2023-04-03T15:52:12;12.93;;;8.63;;
22937;SDS011;11634;42.734;23.298;2023-04-03T15:54:38;12.13;;;8.20;;
22937;SDS011;11634;42.734;23.298;2023-04-03T15:57:03;9.75;;;6.97;;
22937;SDS011;11634;42.734;23.298;2023-04-03T15:59:29;11.55;;;9.55;;
22937;SDS011;11634;42.734;23.298;2023-04-03T16:01:56;10.48;;;9.15;;
22937;SDS011;11634;42.734;23.298;2023-04-03T16:04:21;11.40;;;8.70;;
22937;SDS011;11634;42.734;23.298;2023-04-03T16:06:47;10.98;;;9.82;;
22937;SDS011;11634;42.734;23.298;2023-04-03T16:09:12;8.40;;;6.68;;
22937;SDS011;11634;42.734;23.298;2023-04-03T16:11:38;8.38;;;5.78;;
22937;SDS011;11634;42.734;23.298;2023-04-03T16:14:08;8.73;;;7.82;;
22937;SDS011;11634;42.734;23.298;2023-04-03T16:16:33;8.75;;;7.10;;
22937;SDS011;11634;42.734;23.298;2023-04-03T16:18:59;6.05;;;5.45;;
22937;SDS011;11634;42.734;23.298;2023-04-03T16:21:26;7.20;;;5.80;;
22937;SDS011;11634;42.734;23.298;2023-04-03T16:23:52;7.93;;;5.72;;
22937;SDS011;11634;42.734;23.298;2023-04-03T16:26:26;5.00;;;4.50;;
22937;SDS011;11634;42.734;23.298;2023-04-03T16:28:52;4.60;;;3.70;;
22937;SDS011;11634;42.734;23.298;2023-04-03T16:31:17;4.47;;;3.58;;